Time;durP1;ratioP1;P1;durP2;ratioP2;P2;SDS_P1;SDS_P2;PMS_P1;PMS_P2;Temp;Humidity;BMP_temperature;BMP_pressure;BME280_temperature;BME280_humidity;BME280_pressure;Samples;Min_cycle;Max_cycle;Signal;HPM_P1;HPM_P2
2023/07/27 00:02:14;;;;;;;;;;;;;;;19.54;56.77;99211.91;10331062;28;1894;-65
2023/07/27 00:07:10;;;;;;;;;;;;;;;19.54;56.75;99209.25;10330161;28;842;-65
2023/07/27 00:12:06;;;;;;;;;;;;;;;19.53;56.78;99199.66;10331387;28;880;-65
2023/07/27 00:17:02;;;;;;;;;;;;;;;19.53;56.82;99194.34;10330416;28;868;-65
2023/07/27 00:21:58;;;;;;;;;;;;;;;19.50;56.69;99192.75;10329729;28;1953;-65
2023/07/27 00:26:54;;;;;;;;;;;;;;;19.51;56.85;99183.03;10329344;28;947;-65
2023/07/27 00:31:50;;;;;;;;;;;;;;;19.50;56.82;99179.53;10329392;28;1290;-65
2023/07/27 00:36:46;;;;;;;;;;;;;;;19.50;56.86;99171.59;10327864;28;930;-65
2023/07/27 00:41:42;;;;;;;;;;;;;;;19.49;56.66;99170.75;10328686;28;1898;-65
2023/07/27 00:46:38;;;;;;;;;;;;;;;19.48;56.77;99161.09;10329262;28;782;-65
2023/07/27 00:51:34;;;;;;;;;;;;;;;19.48;56.82;99154.97;10328440;28;936;-65
2023/07/27 00:56:29;;;;;;;;;;;;;;;19.47;56.82;99146.19;10327820;28;1047;-65
2023/07/27 01:01:25;;;;;;;;;;;;;;;19.45;56.76;99129.56;10328318;28;1893;-65
2023/07/27 01:06:21;;;;;;;;;;;;;;;19.45;56.88;99129.56;10327836;28;766;-65
2023/07/27 01:11:17;;;;;;;;;;;;;;;19.45;56.90;99119.00;10328206;28;882;-65
2023/07/27 01:16:13;;;;;;;;;;;;;;;19.45;56.85;99110.22;10327401;28;802;-66
2023/07/27 01:21:09;;;;;;;;;;;;;;;19.45;56.86;99107.59;10327112;28;1889;-65
2023/07/27 01:26:05;;;;;;;;;;;;;;;19.44;56.78;99111.16;10327146;28;880;-65
2023/07/27 01:31:01;;;;;;;;;;;;;;;19.42;56.92;99103.34;10326911;28;1331;-65
2023/07/27 01:35:56;;;;;;;;;;;;;;;19.43;56.85;99099.75;10327393;28;998;-65
2023/07/27 01:40:52;;;;;;;;;;;;;;;19.42;56.81;99091.91;10327423;28;1914;-65
2023/07/27 01:45:48;;;;;;;;;;;;;;;19.41;56.90;99079.63;10326982;28;955;-65
2023/07/27 01:50:44;;;;;;;;;;;;;;;19.41;56.75;99084.91;10326157;28;917;-65
2023/07/27 01:55:40;;;;;;;;;;;;;;;19.40;56.87;99080.59;10326891;28;942;-65
2023/07/27 02:00:36;;;;;;;;;;;;;;;19.39;56.81;99073.63;10325277;28;1957;-65
2023/07/27 02:05:32;;;;;;;;;;;;;;;19.39;56.75;99065.69;10326966;28;864;-65
2023/07/27 02:10:27;;;;;;;;;;;;;;;19.38;56.75;99056.88;10326310;28;850;-65
2023/07/27 02:15:24;;;;;;;;;;;;;;;19.38;56.85;99062.16;10325605;28;984;-65
2023/07/27 02:20:19;;;;;;;;;;;;;;;19.37;56.80;99049.06;10325425;28;1898;-65
2023/07/27 02:25:15;;;;;;;;;;;;;;;19.36;56.83;99045.56;10326393;28;929;-65
2023/07/27 02:30:11;;;;;;;;;;;;;;;19.36;56.66;99035.00;10325303;28;1364;-65
2023/07/27 02:35:07;;;;;;;;;;;;;;;19.36;56.70;99034.13;10325286;28;807;-65
2023/07/27 02:40:03;;;;;;;;;;;;;;;19.35;56.94;99037.72;10325060;28;1968;-65
2023/07/27 02:44:59;;;;;;;;;;;;;;;19.34;56.86;99034.25;10325637;28;920;-65
2023/07/27 02:49:55;;;;;;;;;;;;;;;19.34;56.95;99036.03;10324873;28;795;-65
2023/07/27 02:54:50;;;;;;;;;;;;;;;19.34;56.84;99038.69;10325467;28;957;-65
2023/07/27 02:59:46;;;;;;;;;;;;;;;19.31;56.91;99039.72;10328224;28;1951;-65
2023/07/27 03:04:42;;;;;;;;;;;;;;;19.31;56.86;99047.66;10332000;28;866;-65
2023/07/27 03:09:38;;;;;;;;;;;;;;;19.31;56.82;99037.06;10332387;28;790;-65
2023/07/27 03:14:34;;;;;;;;;;;;;;;19.31;56.70;99042.38;10333018;28;926;-65
2023/07/27 03:19:30;;;;;;;;;;;;;;;19.30;56.78;99040.66;10332498;28;1957;-65
2023/07/27 03:24:26;;;;;;;;;;;;;;;19.30;56.80;99032.72;10332511;28;940;-65
2023/07/27 03:29:21;;;;;;;;;;;;;;;19.30;56.68;99035.38;10331001;28;1227;-65
2023/07/27 03:34:17;;;;;;;;;;;;;;;19.29;56.82;99041.59;10331947;28;1456;-65
2023/07/27 03:39:13;;;;;;;;;;;;;;;19.29;56.77;99035.47;10331126;28;1963;-65
2023/07/27 03:44:11;;;;;;;;;;;;;;;19.27;56.78;99028.47;10331686;28;821;-65
2023/07/27 03:49:09;;;;;;;;;;;;;;;19.28;56.76;99037.25;10330833;28;966;-65
2023/07/27 03:54:05;;;;;;;;;;;;;;;19.27;56.80;99028.47;10331324;28;882;-65
2023/07/27 03:59:00;;;;;;;;;;;;;;;19.27;56.68;99028.47;10330394;28;1893;-65
2023/07/27 04:03:56;;;;;;;;;;;;;;;19.27;56.82;99022.34;10330414;28;870;-65
2023/07/27 04:08:52;;;;;;;;;;;;;;;19.27;56.82;99017.06;10330533;28;836;-65
2023/07/27 04:13:48;;;;;;;;;;;;;;;19.25;56.85;99005.72;10329921;28;902;-65
2023/07/27 04:18:44;;;;;;;;;;;;;;;19.25;56.75;99003.09;10329765;28;865;-65
2023/07/27 04:23:40;;;;;;;;;;;;;;;19.25;56.87;99000.44;10329540;28;1953;-65
2023/07/27 04:28:36;;;;;;;;;;;;;;;19.26;56.74;98994.22;10329382;28;863;-65
2023/07/27 04:33:32;;;;;;;;;;;;;;;19.30;56.67;98993.09;10329820;28;1309;-65
2023/07/27 04:38:27;;;;;;;;;;;;;;;19.35;56.49;98983.09;10329063;28;896;-65
2023/07/27 04:43:23;;;;;;;;;;;;;;;19.37;56.63;98989.13;10329866;28;1987;-65
2023/07/27 04:48:19;;;;;;;;;;;;;;;19.38;56.47;98979.41;10328554;28;821;-65
2023/07/27 04:53:15;;;;;;;;;;;;;;;19.39;56.56;98962.63;10327843;28;932;-65
2023/07/27 04:58:11;;;;;;;;;;;;;;;19.40;56.42;98951.94;10328238;28;886;-65
2023/07/27 05:03:07;;;;;;;;;;;;;;;19.43;56.47;98951.75;10327819;28;1898;-65
2023/07/27 05:08:03;;;;;;;;;;;;;;;19.46;56.45;98946.25;10328396;28;927;-65
2023/07/27 05:12:59;;;;;;;;;;;;;;;19.47;56.42;98937.41;10328711;28;773;-65
2023/07/27 05:17:54;;;;;;;;;;;;;;;19.48;56.40;98936.44;10327906;28;951;-65
2023/07/27 05:22:50;;;;;;;;;;;;;;;19.51;56.40;98930.13;10327494;28;1957;-65
2023/07/27 05:27:46;;;;;;;;;;;;;;;19.53;56.30;98941.44;10327141;28;1177;-65
2023/07/27 05:32:42;;;;;;;;;;;;;;;19.56;56.17;98935.13;10326532;28;1524;-65
2023/07/27 05:37:39;;;;;;;;;;;;;;;19.56;56.19;98914.81;10326645;28;773;-65
2023/07/27 05:42:35;;;;;;;;;;;;;;;19.57;56.22;98911.25;10327011;28;1921;-65
2023/07/27 05:47:31;;;;;;;;;;;;;;;19.57;56.23;98898.03;10326856;28;906;-65
2023/07/27 05:52:27;;;;;;;;;;;;;;;19.59;56.20;98887.34;10327505;28;845;-65
2023/07/27 05:57:23;;;;;;;;;;;;;;;19.58;56.34;98875.06;10326970;28;841;-65
2023/07/27 06:02:18;;;;;;;;;;;;;;;19.57;56.12;98861.00;10326588;28;1894;-66
2023/07/27 06:07:14;;;;;;;;;;;;;;;19.56;56.33;98839.97;10325747;28;974;-64
2023/07/27 06:12:13;;;;;;;;;;;;;;;19.56;56.37;98824.09;10325117;28;1015;-65
2023/07/27 06:17:09;;;;;;;;;;;;;;;19.56;56.24;98808.22;10325603;28;881;-65
2023/07/27 06:22:05;;;;;;;;;;;;;;;19.59;56.17;98803.59;10326018;28;1901;-65
2023/07/27 06:27:01;;;;;;;;;;;;;;;19.56;56.33;98790.56;10323362;28;1094;-65
2023/07/27 06:31:57;;;;;;;;;;;;;;;19.53;56.70;98774.09;10325389;28;1348;-66
2023/07/27 06:36:53;;;;;;;;;;;;;;;19.54;57.22;98781.88;10333859;28;810;-66
2023/07/27 06:41:48;;;;;;;;;;;;;;;19.54;57.37;98760.75;10333638;28;1914;-65
2023/07/27 06:46:44;;;;;;;;;;;;;;;19.55;57.27;98751.03;10332784;28;855;-64
2023/07/27 06:51:40;;;;;;;;;;;;;;;19.57;57.45;98747.34;10333173;28;910;-65
2023/07/27 06:56:36;;;;;;;;;;;;;;;19.62;57.45;98750.53;10332990;28;806;-65
2023/07/27 07:01:32;;;;;;;;;;;;;;;19.64;57.42;98745.13;10331751;28;1902;-65
2023/07/27 07:06:28;;;;;;;;;;;;;;;19.65;57.30;98733.63;10332529;28;900;-66
2023/07/27 07:11:24;;;;;;;;;;;;;;;19.66;57.38;98736.19;10314378;28;988;-65
2023/07/27 07:16:20;;;;;;;;;;;;;;;19.67;57.46;98742.31;10332216;28;871;-66
2023/07/27 07:21:16;;;;;;;;;;;;;;;19.68;57.40;98731.63;10332567;28;1902;-66
2023/07/27 07:26:11;;;;;;;;;;;;;;;19.66;57.32;98735.31;10331228;28;864;-65
2023/07/27 07:31:07;;;;;;;;;;;;;;;19.72;57.21;98734.06;10331007;28;1243;-66
2023/07/27 07:36:03;;;;;;;;;;;;;;;19.77;57.22;98726.69;10330815;28;1187;-65
2023/07/27 07:40:59;;;;;;;;;;;;;;;19.80;57.22;98729.94;10331141;28;1918;-65
2023/07/27 07:45:55;;;;;;;;;;;;;;;19.82;57.39;98724.56;10330428;28;769;-65
2023/07/27 07:50:51;;;;;;;;;;;;;;;19.81;57.39;98717.59;10331503;28;890;-65
2023/07/27 07:55:47;;;;;;;;;;;;;;;19.80;57.54;98708.81;10330703;28;910;-65
2023/07/27 08:00:43;;;;;;;;;;;;;;;19.84;57.67;98707.66;10327741;28;1894;-67
2023/07/27 08:05:38;;;;;;;;;;;;;;;19.85;57.67;98704.03;10328948;28;893;-65
2023/07/27 08:10:34;;;;;;;;;;;;;;;19.82;57.78;98693.69;10327392;28;991;-65
2023/07/27 08:15:30;;;;;;;;;;;;;;;19.83;57.55;98687.47;10311573;28;905;-65
2023/07/27 08:20:26;;;;;;;;;;;;;;;19.82;57.69;98685.75;10329746;28;1906;-64
2023/07/27 08:25:22;;;;;;;;;;;;;;;19.82;57.66;98683.09;10329116;28;887;-65
2023/07/27 08:30:18;;;;;;;;;;;;;;;19.85;57.73;98685.53;10329276;28;1545;-66
2023/07/27 08:35:14;;;;;;;;;;;;;;;19.84;57.86;98675.06;10328719;28;817;-65
2023/07/27 08:40:10;;;;;;;;;;;;;;;19.88;57.64;98673.91;10328904;28;1977;-66
2023/07/27 08:45:06;;;;;;;;;;;;;;;19.88;57.83;98668.59;10328336;28;881;-66
2023/07/27 08:50:02;;;;;;;;;;;;;;;19.85;57.70;98664.38;10329075;28;884;-66
2023/07/27 08:54:58;;;;;;;;;;;;;;;19.85;57.78;98667.03;10327972;28;814;-65
2023/07/27 08:59:54;;;;;;;;;;;;;;;19.86;57.74;98660.81;10326987;28;1901;-66
2023/07/27 09:04:50;;;;;;;;;;;;;;;19.88;57.78;98661.50;10327745;28;908;-66
2023/07/27 09:09:46;;;;;;;;;;;;;;;19.87;57.79;98667.78;10327948;28;925;-65
2023/07/27 09:14:42;;;;;;;;;;;;;;;19.88;57.95;98671.25;10327822;28;944;-66
2023/07/27 09:19:37;;;;;;;;;;;;;;;19.86;58.05;98671.38;10328372;28;1890;-64
2023/07/27 09:24:33;;;;;;;;;;;;;;;19.83;58.08;98662.78;10326184;28;840;-66
2023/07/27 09:29:29;;;;;;;;;;;;;;;19.81;58.29;98670.84;10325751;28;561;-66
2023/07/27 09:34:28;;;;;;;;;;;;;;;19.80;58.14;98663.00;10326417;28;1428;-67
2023/07/27 09:39:26;;;;;;;;;;;;;;;19.78;58.25;98665.78;10326868;28;1979;-69
2023/07/27 09:44:22;;;;;;;;;;;;;;;19.74;58.33;98663.44;10326528;28;868;-68
2023/07/27 09:49:19;;;;;;;;;;;;;;;19.71;58.39;98659.22;10327130;28;869;-68
2023/07/27 09:54:15;;;;;;;;;;;;;;;19.69;58.36;98661.09;10325822;28;842;-65
2023/07/27 09:59:11;;;;;;;;;;;;;;;19.67;58.47;98663.00;10326540;28;1961;-65
2023/07/27 10:04:07;;;;;;;;;;;;;;;19.64;58.67;98653.44;10325637;28;1082;-66
2023/07/27 10:09:03;;;;;;;;;;;;;;;19.63;58.64;98662.34;10325618;28;941;-65
2023/07/27 10:14:00;;;;;;;;;;;;;;;19.64;58.75;98653.44;10324107;28;1006;-65
2023/07/27 10:18:56;;;;;;;;;;;;;;;19.63;58.95;98643.00;10326237;28;857;-65
2023/07/27 10:23:52;;;;;;;;;;;;;;;19.62;58.82;98646.56;10325126;28;1943;-65
2023/07/27 10:28:48;;;;;;;;;;;;;;;19.63;58.93;98645.63;10325381;28;809;-65
2023/07/27 10:33:45;;;;;;;;;;;;;;;19.62;58.86;98646.56;10324547;28;1149;-65
2023/07/27 10:38:41;;;;;;;;;;;;;;;19.64;59.06;98642.03;10325116;28;821;-64
2023/07/27 10:43:37;;;;;;;;;;;;;;;19.64;58.89;98640.22;10325057;28;1914;-65
2023/07/27 10:48:33;;;;;;;;;;;;;;;19.61;59.02;98637.81;10324865;28;763;-66
2023/07/27 10:53:29;;;;;;;;;;;;;;;19.63;59.26;98635.06;10325294;28;878;-66
2023/07/27 10:58:25;;;;;;;;;;;;;;;19.67;59.10;98633.91;10325923;28;849;-65
2023/07/27 11:03:20;;;;;;;;;;;;;;;19.65;58.90;98633.16;10323883;28;1893;-64
2023/07/27 11:08:16;;;;;;;;;;;;;;;19.65;58.98;98630.53;10324636;28;980;-65
2023/07/27 11:13:12;;;;;;;;;;;;;;;19.66;59.15;98624.28;10324156;28;788;-64
2023/07/27 11:18:08;;;;;;;;;;;;;;;19.67;59.31;98631.28;10324270;28;864;-66
2023/07/27 11:23:04;;;;;;;;;;;;;;;19.64;59.36;98626.16;10330576;28;1893;-66
2023/07/27 11:28:00;;;;;;;;;;;;;;;19.63;59.55;98624.50;10331770;28;870;-68
2023/07/27 11:32:56;;;;;;;;;;;;;;;19.61;59.53;98623.75;10331507;28;1835;-68
2023/07/27 11:37:52;;;;;;;;;;;;;;;19.59;59.44;98612.44;10331936;28;1590;-68
2023/07/27 11:42:48;;;;;;;;;;;;;;;19.56;59.40;98613.47;10330595;28;1898;-67
2023/07/27 11:47:44;;;;;;;;;;;;;;;19.57;59.32;98607.25;10331192;28;846;-67
2023/07/27 11:52:39;;;;;;;;;;;;;;;19.56;59.26;98610.84;10330237;28;841;-68
2023/07/27 11:57:35;;;;;;;;;;;;;;;19.54;59.10;98606.59;10331151;28;894;-67
2023/07/27 12:02:33;;;;;;;;;;;;;;;19.52;59.05;98605.84;10329893;28;2012;-67
2023/07/27 12:07:29;;;;;;;;;;;;;;;19.51;59.31;98606.81;10330366;28;850;-67
2023/07/27 12:12:24;;;;;;;;;;;;;;;19.48;58.97;98600.78;10330411;28;821;-68
2023/07/27 12:17:20;;;;;;;;;;;;;;;19.47;59.08;98603.56;10330004;28;948;-67
2023/07/27 12:22:16;;;;;;;;;;;;;;;19.48;59.07;98602.59;10330022;28;1894;-70
2023/07/27 12:27:12;;;;;;;;;;;;;;;19.45;59.09;98601.00;10330053;28;890;-67
2023/07/27 12:32:08;;;;;;;;;;;;;;;19.51;60.00;98604.19;10328074;28;1288;-65
2023/07/27 12:37:07;;;;;;;;;;;;;;;19.54;60.76;98604.81;10329680;28;814;-67
2023/07/27 12:42:03;;;;;;;;;;;;;;;19.55;60.63;98609.16;10329145;28;1914;-66
2023/07/27 12:46:59;;;;;;;;;;;;;;;19.54;60.85;98617.19;10328785;28;861;-65
2023/07/27 12:51:55;;;;;;;;;;;;;;;19.55;61.12;98605.69;10329243;28;838;-65
2023/07/27 12:56:51;;;;;;;;;;;;;;;19.53;61.03;98611.06;10327754;28;1050;-65
2023/07/27 13:01:47;;;;;;;;;;;;;;;19.53;61.01;98608.41;10328043;28;1894;-65
2023/07/27 13:06:42;;;;;;;;;;;;;;;19.54;61.23;98603.97;10328033;28;944;-65
2023/07/27 13:11:38;;;;;;;;;;;;;;;19.57;61.23;98604.63;10328328;28;841;-65
2023/07/27 13:16:34;;;;;;;;;;;;;;;19.58;61.01;98614.22;10327016;28;947;-65
2023/07/27 13:21:30;;;;;;;;;;;;;;;19.56;61.24;98612.63;10326853;28;1890;-65
2023/07/27 13:26:26;;;;;;;;;;;;;;;19.55;61.31;98608.31;10327248;28;802;-65
2023/07/27 13:31:23;;;;;;;;;;;;;;;19.55;61.32;98608.31;10327306;28;1156;-65
2023/07/27 13:36:19;;;;;;;;;;;;;;;19.52;61.41;98616.44;10326815;28;1658;-65
2023/07/27 13:41:15;;;;;;;;;;;;;;;19.48;61.22;98613.16;10326257;28;1910;-64
2023/07/27 13:46:11;;;;;;;;;;;;;;;19.47;61.42;98612.31;10324932;28;873;-65
2023/07/27 13:51:09;;;;;;;;;;;;;;;19.47;61.53;98614.13;10326325;28;747;-65
2023/07/27 13:56:05;;;;;;;;;;;;;;;19.47;61.47;98609.69;10326890;28;833;-65
2023/07/27 14:01:01;;;;;;;;;;;;;;;19.47;61.63;98609.69;10325976;28;1909;-65
2023/07/27 14:05:57;;;;;;;;;;;;;;;19.47;61.58;98609.69;10325981;28;961;-64
2023/07/27 14:10:53;;;;;;;;;;;;;;;19.46;61.75;98615.91;10325466;28;1222;-65
2023/07/27 14:15:49;;;;;;;;;;;;;;;19.46;61.33;98615.91;10326351;28;802;-68
2023/07/27 14:20:44;;;;;;;;;;;;;;;19.52;61.32;98611.16;10325038;28;1890;-69
2023/07/27 14:25:40;;;;;;;;;;;;;;;19.48;61.18;98611.34;10325543;28;864;-66
2023/07/27 14:30:36;;;;;;;;;;;;;;;19.51;61.76;98612.94;10325388;28;1340;-66
2023/07/27 14:35:32;;;;;;;;;;;;;;;19.53;62.14;98613.69;10326440;28;861;-66
2023/07/27 14:40:28;;;;;;;;;;;;;;;19.53;62.23;98608.41;10325371;28;1906;-65
2023/07/27 14:45:24;;;;;;;;;;;;;;;19.51;62.39;98618.22;10324794;28;1003;-65
2023/07/27 14:50:20;;;;;;;;;;;;;;;19.50;62.37;98616.56;10324754;28;989;-65
2023/07/27 14:55:16;;;;;;;;;;;;;;;19.53;62.29;98623.44;10327111;28;879;-66
2023/07/27 15:00:12;;;;;;;;;;;;;;;19.53;62.42;98624.28;10332373;28;1938;-66
2023/07/27 15:05:08;;;;;;;;;;;;;;;19.52;62.39;98616.44;10333227;28;925;-66
2023/07/27 15:10:04;;;;;;;;;;;;;;;19.49;62.48;98613.06;10332493;28;913;-66
2023/07/27 15:15:00;;;;;;;;;;;;;;;19.50;62.19;98613.91;10332144;28;833;-66
2023/07/27 15:19:56;;;;;;;;;;;;;;;19.52;62.38;98616.44;10331898;28;1905;-66
2023/07/27 15:24:52;;;;;;;;;;;;;;;19.50;62.32;98608.63;10331091;28;948;-65
2023/07/27 15:29:48;;;;;;;;;;;;;;;19.49;62.34;98607.78;10331373;28;1078;-67
2023/07/27 15:34:44;;;;;;;;;;;;;;;19.48;62.41;98602.59;10332021;28;833;-66
2023/07/27 15:39:40;;;;;;;;;;;;;;;19.45;62.30;98611.56;10331061;28;1902;-65
2023/07/27 15:44:36;;;;;;;;;;;;;;;19.43;62.25;98610.81;10330884;28;878;-69
2023/07/27 15:49:32;;;;;;;;;;;;;;;19.41;62.08;98611.88;10330856;28;974;-69
2023/07/27 15:54:27;;;;;;;;;;;;;;;19.41;62.05;98604.81;10330501;28;759;-69
2023/07/27 15:59:23;;;;;;;;;;;;;;;19.40;61.87;98608.41;10330391;28;1893;-70
2023/07/27 16:04:19;;;;;;;;;;;;;;;19.37;61.94;98611.25;10330805;28;873;-70
2023/07/27 16:09:17;;;;;;;;;;;;;;;19.36;61.83;98606.94;10329549;28;830;-70
2023/07/27 16:14:12;;;;;;;;;;;;;;;19.34;61.74;98610.63;10330252;28;930;-70
2023/07/27 16:19:08;;;;;;;;;;;;;;;19.33;61.44;98617.69;10329671;28;821;-71
2023/07/27 16:24:05;;;;;;;;;;;;;;;19.31;61.34;98608.16;10329448;28;1951;-69
2023/07/27 16:29:01;;;;;;;;;;;;;;;19.30;61.25;98620.53;10329274;28;979;-69
2023/07/27 16:33:57;;;;;;;;;;;;;;;19.30;61.38;98617.06;10328618;28;1159;-69
2023/07/27 16:38:52;;;;;;;;;;;;;;;19.29;61.24;98616.22;10328909;28;894;-69
2023/07/27 16:43:48;;;;;;;;;;;;;;;19.29;61.33;98623.31;10328575;28;1969;-69
2023/07/27 16:48:46;;;;;;;;;;;;;;;19.27;61.26;98624.22;10328863;28;884;-69
2023/07/27 16:53:42;;;;;;;;;;;;;;;19.24;61.21;98632.38;10328598;28;867;-68
2023/07/27 16:58:38;;;;;;;;;;;;;;;19.25;61.13;98627.94;10329032;28;912;-69
2023/07/27 17:03:34;;;;;;;;;;;;;;;19.22;61.13;98633.41;10328877;28;1969;-69
2023/07/27 17:08:30;;;;;;;;;;;;;;;19.22;61.17;98634.25;10328093;28;858;-69
2023/07/27 17:13:26;;;;;;;;;;;;;;;19.22;61.11;98636.91;10328661;28;956;-68
2023/07/27 17:18:22;;;;;;;;;;;;;;;19.21;60.95;98634.38;10326465;28;866;-68
2023/07/27 17:23:18;;;;;;;;;;;;;;;19.21;60.99;98631.75;10328036;28;1965;-68
2023/07/27 17:28:14;;;;;;;;;;;;;;;19.19;60.88;98621.25;10326908;28;938;-68
2023/07/27 17:33:10;;;;;;;;;;;;;;;19.21;60.90;98621.16;10327744;28;1115;-68
2023/07/27 17:38:06;;;;;;;;;;;;;;;19.19;60.84;98629.19;10327606;28;1032;-69
2023/07/27 17:43:02;;;;;;;;;;;;;;;19.18;60.93;98634.59;10326875;28;1963;-68
2023/07/27 17:47:58;;;;;;;;;;;;;;;19.18;60.72;98639.88;10326461;28;1297;-68
2023/07/27 17:52:54;;;;;;;;;;;;;;;19.16;60.73;98636.47;10326262;28;870;-68
2023/07/27 17:57:50;;;;;;;;;;;;;;;19.15;60.79;98635.63;10326130;28;796;-68
2023/07/27 18:02:46;;;;;;;;;;;;;;;19.15;60.76;98640.06;10326463;28;1902;-68
2023/07/27 18:07:42;;;;;;;;;;;;;;;19.14;60.65;98639.22;10325945;28;1695;-68
2023/07/27 18:12:38;;;;;;;;;;;;;;;19.14;60.60;98649.78;10325750;28;920;-68
2023/07/27 18:17:33;;;;;;;;;;;;;;;19.12;60.50;98641.09;10325682;28;889;-68
2023/07/27 18:22:32;;;;;;;;;;;;;;;19.13;60.68;98648.09;10325429;28;1898;-68
2023/07/27 18:27:28;;;;;;;;;;;;;;;19.12;60.49;98648.19;10325523;28;754;-67
2023/07/27 18:32:24;;;;;;;;;;;;;;;19.15;60.49;98654.13;10325484;28;1308;-67
2023/07/27 18:37:19;;;;;;;;;;;;;;;19.18;60.50;98640.72;10325857;28;904;-68
2023/07/27 18:42:15;;;;;;;;;;;;;;;19.24;60.30;98644.75;10324998;28;1971;-68
2023/07/27 18:47:11;;;;;;;;;;;;;;;19.25;60.21;98647.25;10325069;28;862;-68
2023/07/27 18:52:07;;;;;;;;;;;;;;;19.26;60.03;98653.41;10324473;28;987;-68
2023/07/27 18:57:03;;;;;;;;;;;;;;;19.26;60.14;98638.41;10324833;28;830;-68
2023/07/27 19:01:59;;;;;;;;;;;;;;;19.29;60.10;98653.19;10325616;28;1894;-68
2023/07/27 19:06:56;;;;;;;;;;;;;;;19.31;60.15;98642.50;10325309;28;846;-68
2023/07/27 19:11:53;;;;;;;;;;;;;;;19.32;60.04;98642.41;10325657;28;877;-68
2023/07/27 19:16:49;;;;;;;;;;;;;;;19.35;60.03;98644.00;10324919;28;807;-68
2023/07/27 19:21:45;;;;;;;;;;;;;;;19.36;60.03;98641.28;10324967;28;1957;-70
2023/07/27 19:26:41;;;;;;;;;;;;;;;19.38;59.89;98657.00;10324279;28;1372;-70
2023/07/27 19:31:37;;;;;;;;;;;;;;;19.41;59.96;98672.66;10323740;28;1204;-69
2023/07/27 19:36:32;;;;;;;;;;;;;;;19.43;59.88;98662.84;10324654;28;883;-68
2023/07/27 19:41:28;;;;;;;;;;;;;;;19.43;60.02;98668.97;10326442;28;1969;-72
2023/07/27 19:46:24;;;;;;;;;;;;;;;19.44;59.94;98661.88;10331269;28;858;-72
2023/07/27 19:51:21;;;;;;;;;;;;;;;19.42;60.06;98666.44;10331126;28;924;-69
2023/07/27 19:56:17;;;;;;;;;;;;;;;19.43;59.91;98679.53;10330506;28;1114;-68
2023/07/27 20:01:13;;;;;;;;;;;;;;;19.42;59.98;98683.13;10331187;28;1883;-68
2023/07/27 20:06:08;;;;;;;;;;;;;;;19.40;59.92;98682.38;10331276;28;952;-68
2023/07/27 20:11:04;;;;;;;;;;;;;;;19.40;60.07;98676.25;10330521;28;940;-68
2023/07/27 20:16:00;;;;;;;;;;;;;;;19.38;60.10;98684.28;10313562;28;762;-68
2023/07/27 20:20:56;;;;;;;;;;;;;;;19.37;59.94;98674.66;10329984;28;1964;-67
2023/07/27 20:25:52;;;;;;;;;;;;;;;19.39;60.22;98672.78;10329607;28;889;-67
2023/07/27 20:30:48;;;;;;;;;;;;;;;19.37;60.23;98687.88;10330201;28;1376;-67
2023/07/27 20:35:45;;;;;;;;;;;;;;;19.34;60.43;98677.53;10329356;28;1332;-67
2023/07/27 20:40:43;;;;;;;;;;;;;;;19.34;60.44;98674.03;10329234;28;1910;-67
2023/07/27 20:45:39;;;;;;;;;;;;;;;19.32;60.39;98674.13;10329661;28;841;-67
2023/07/27 20:50:35;;;;;;;;;;;;;;;19.33;60.39;98677.59;10328834;28;947;-67
2023/07/27 20:55:31;;;;;;;;;;;;;;;19.30;60.50;98681.31;10328570;28;1019;-67
2023/07/27 21:00:27;;;;;;;;;;;;;;;19.31;60.30;98668.94;10328958;28;1894;-67
2023/07/27 21:05:23;;;;;;;;;;;;;;;19.31;60.40;98668.94;10328377;28;769;-67
2023/07/27 21:10:19;;;;;;;;;;;;;;;19.29;60.35;98674.34;10328252;28;923;-67
2023/07/27 21:15:15;;;;;;;;;;;;;;;19.28;60.31;98680.56;10327782;28;861;-67
2023/07/27 21:20:11;;;;;;;;;;;;;;;19.27;60.39;98673.59;10327544;28;1893;-67
2023/07/27 21:25:07;;;;;;;;;;;;;;;19.26;60.18;98675.38;10327417;28;845;-67
2023/07/27 21:30:03;;;;;;;;;;;;;;;19.26;60.36;98674.53;10327501;28;1538;-67
2023/07/27 21:34:59;;;;;;;;;;;;;;;19.25;60.45;98675.47;10327571;28;854;-67
2023/07/27 21:39:55;;;;;;;;;;;;;;;19.26;60.42;98663.97;10327388;28;1905;-68
2023/07/27 21:44:50;;;;;;;;;;;;;;;19.24;60.50;98663.22;10326118;28;960;-68
2023/07/27 21:49:46;;;;;;;;;;;;;;;19.23;60.32;98664.16;10326522;28;933;-68
2023/07/27 21:54:42;;;;;;;;;;;;;;;19.22;60.30;98659.84;10326301;28;814;-68
2023/07/27 21:59:38;;;;;;;;;;;;;;;19.21;60.28;98651.06;10326701;28;1953;-67
2023/07/27 22:04:35;;;;;;;;;;;;;;;19.22;60.32;98647.47;10326123;28;858;-67
2023/07/27 22:09:31;;;;;;;;;;;;;;;19.21;60.15;98652.88;10325901;28;910;-67
2023/07/27 22:14:27;;;;;;;;;;;;;;;19.18;60.20;98651.28;10326468;28;926;-67
2023/07/27 22:19:23;;;;;;;;;;;;;;;19.18;60.29;98648.63;10325132;28;920;-68
2023/07/27 22:24:19;;;;;;;;;;;;;;;19.17;60.46;98648.72;10325932;28;1960;-68
2023/07/27 22:29:15;;;;;;;;;;;;;;;19.17;60.26;98646.09;10326046;28;1048;-68
2023/07/27 22:34:11;;;;;;;;;;;;;;;19.16;60.16;98644.41;10325948;28;1137;-67
2023/07/27 22:39:07;;;;;;;;;;;;;;;19.15;60.39;98634.75;10324449;28;913;-67
2023/07/27 22:44:03;;;;;;;;;;;;;;;19.15;60.19;98645.34;10324975;28;1918;-68
2023/07/27 22:48:58;;;;;;;;;;;;;;;19.14;60.38;98648.94;10325703;28;902;-67
2023/07/27 22:53:54;;;;;;;;;;;;;;;19.14;60.24;98639.22;10324125;28;1098;-67
2023/07/27 22:58:50;;;;;;;;;;;;;;;19.14;60.41;98643.66;10324918;28;878;-67
2023/07/27 23:03:46;;;;;;;;;;;;;;;19.13;60.45;98634.88;10324724;28;1922;-67
2023/07/27 23:08:42;;;;;;;;;;;;;;;19.11;60.31;98639.41;10324641;28;882;-67
2023/07/27 23:13:38;;;;;;;;;;;;;;;19.11;60.35;98644.69;10325229;28;825;-67
2023/07/27 23:18:34;;;;;;;;;;;;;;;19.11;60.48;98642.06;10330694;28;849;-67
2023/07/27 23:23:30;;;;;;;;;;;;;;;19.12;60.22;98650.81;10332802;28;1960;-67
2023/07/27 23:28:26;;;;;;;;;;;;;;;19.11;60.06;98643.88;10332572;28;817;-67
2023/07/27 23:33:22;;;;;;;;;;;;;;;19.10;60.35;98652.72;10332976;28;1180;-67
2023/07/27 23:38:17;;;;;;;;;;;;;;;19.10;60.17;98650.06;10332824;28;997;-67
2023/07/27 23:43:13;;;;;;;;;;;;;;;19.09;60.23;98645.75;10331350;28;1968;-67
2023/07/27 23:48:09;;;;;;;;;;;;;;;19.10;60.21;98647.44;10331294;28;860;-67
2023/07/27 23:53:05;;;;;;;;;;;;;;;19.09;60.29;98657.16;10331366;28;835;-67
2023/07/27 23:58:01;;;;;;;;;;;;;;;19.08;60.23;98667.84;10331503;28;817;-67
